Time,TemperatureF,DewpointF,PressureIn,WindDirection,WindDirectionDegrees,WindSpeedMPH,WindSpeedGustMPH,Humidity,HourlyPrecipIn,Conditions,Clouds,dailyrainin,SoftwareType,DateUTC
2013-06-06 00:01:00,56.0,29.0,30.02,South,180,4.0,5.0,36,0.00,,,0.00,,2013-06-06 06:01:00,
2013-06-06 00:11:00,55.0,31.0,30.02,SSE,157,3.0,4.0,39,0.00,,,0.00,,2013-06-06 06:11:00,
2013-06-06 00:22:00,55.0,31.0,30.02,SSE,157,3.0,4.0,39,0.00,,,0.00,,2013-06-06 06:22:00,
2013-06-06 00:32:00,55.0,31.0,30.01,SSE,157,3.0,4.0,39,0.00,,,0.00,,2013-06-06 06:32:00,
2013-06-06 00:42:00,55.0,31.0,30.01,SSE,157,3.0,4.0,39,0.00,,,0.00,,2013-06-06 06:42:00,
2013-06-06 00:52:00,56.0,28.0,30.01,SSE,157,2.0,2.0,34,0.00,,,0.00,,2013-06-06 06:52:00,
2013-06-06 01:02:00,54.0,29.0,30.01,ESE,112,4.0,5.0,38,0.00,,,0.00,,2013-06-06 07:02:00,
2013-06-06 01:11:00,54.0,29.0,30.01,ESE,112,4.0,5.0,38,0.00,,,0.00,,2013-06-06 07:11:00,
2013-06-06 01:22:00,54.0,29.0,30.01,ESE,112,3.0,4.0,38,0.00,,,0.00,,2013-06-06 07:22:00,
2013-06-06 01:31:00,54.0,28.0,30.01,South,180,2.0,2.0,36,0.00,,,0.00,,2013-06-06 07:31:00,
2013-06-06 01:42:00,54.0,28.0,30.01,South,180,2.0,2.0,36,0.00,,,0.00,,2013-06-06 07:42:00,
2013-06-06 01:52:00,51.0,30.0,30.00,SSW,202,2.0,2.0,45,0.00,,,0.00,,2013-06-06 07:52:00,
2013-06-06 02:02:00,51.0,30.0,29.98,South,180,1.0,2.0,45,0.00,,,0.00,,2013-06-06 08:02:00,
2013-06-06 02:11:00,49.0,31.0,29.98,South,180,2.0,3.0,49,0.00,,,0.00,,2013-06-06 08:11:00,
2013-06-06 02:21:00,49.0,31.0,29.98,South,180,2.0,3.0,49,0.00,,,0.00,,2013-06-06 08:21:00,
2013-06-06 02:31:00,49.0,31.0,29.98,South,180,1.0,2.0,50,0.00,,,0.00,,2013-06-06 08:31:00,
2013-06-06 02:42:00,49.0,30.0,29.98,South,180,1.0,2.0,47,0.00,,,0.00,,2013-06-06 08:42:00,
2013-06-06 02:52:00,49.0,30.0,29.98,South,180,1.0,2.0,47,0.00,,,0.00,,2013-06-06 08:52:00,
2013-06-06 03:01:00,50.0,28.0,29.98,SE,135,1.0,2.0,42,0.00,,,0.00,,2013-06-06 09:01:00,
2013-06-06 03:11:00,51.0,29.0,29.98,SE,135,2.0,3.0,43,0.00,,,0.00,,2013-06-06 09:11:00,
2013-06-06 03:22:00,51.0,29.0,29.98,SE,135,2.0,3.0,43,0.00,,,0.00,,2013-06-06 09:22:00,
2013-06-06 03:32:00,51.0,28.0,29.98,SE,135,2.0,2.0,41,0.00,,,0.00,,2013-06-06 09:32:00,
2013-06-06 03:42:00,51.0,28.0,29.98,SE,135,2.0,2.0,41,0.00,,,0.00,,2013-06-06 09:42:00,
2013-06-06 03:53:00,49.0,31.0,29.98,SE,135,2.0,2.0,50,0.00,,,0.00,,2013-06-06 09:53:00,
2013-06-06 04:02:00,50.0,27.0,29.98,ESE,112,1.0,2.0,41,0.00,,,0.00,,2013-06-06 10:02:00,
2013-06-06 04:12:00,50.0,27.0,29.98,ESE,112,2.0,2.0,41,0.00,,,0.00,,2013-06-06 10:12:00,
2013-06-06 04:22:00,50.0,27.0,29.98,ESE,112,2.0,2.0,41,0.00,,,0.00,,2013-06-06 10:22:00,
2013-06-06 04:32:00,49.0,29.0,29.98,SSE,157,2.0,2.0,45,0.00,,,0.00,,2013-06-06 10:32:00,
2013-06-06 04:41:00,47.0,30.0,29.98,SSE,157,1.0,2.0,51,0.00,,,0.00,,2013-06-06 10:41:00,
2013-06-06 04:52:00,47.0,30.0,29.98,SSE,157,1.0,2.0,51,0.00,,,0.00,,2013-06-06 10:52:00,
2013-06-06 05:02:00,46.0,31.0,29.98,SSE,157,1.0,2.0,55,0.00,,,0.00,,2013-06-06 11:02:00,
2013-06-06 05:11:00,46.0,31.0,29.98,SSE,157,1.0,2.0,55,0.00,,,0.00,,2013-06-06 11:11:00,
2013-06-06 05:22:00,46.0,30.0,29.98,South,180,4.0,4.0,54,0.00,,,0.00,,2013-06-06 11:22:00,
2013-06-06 05:31:00,46.0,30.0,29.98,South,180,3.0,3.0,54,0.00,,,0.00,,2013-06-06 11:31:00,
2013-06-06 05:42:00,46.0,30.0,29.98,South,180,3.0,3.0,54,0.00,,,0.00,,2013-06-06 11:42:00,
2013-06-06 05:52:00,44.0,30.0,29.98,ESE,112,4.0,4.0,58,0.00,,,0.00,,2013-06-06 11:52:00,
2013-06-06 06:01:00,47.0,29.0,29.98,ESE,112,4.0,4.0,50,0.00,,,0.00,,2013-06-06 12:01:00,
2013-06-06 06:22:00,48.0,29.0,29.98,SE,135,2.0,3.0,47,0.00,,,0.00,,2013-06-06 12:22:00,
2013-06-06 06:32:00,48.0,29.0,29.98,SE,135,2.0,2.0,47,0.00,,,0.00,,2013-06-06 12:32:00,
2013-06-06 06:42:00,49.0,31.0,30.00,SSE,157,2.0,2.0,49,0.00,,,0.00,,2013-06-06 12:42:00,
2013-06-06 06:52:00,49.0,31.0,30.00,SSE,157,2.0,2.0,49,0.00,,,0.00,,2013-06-06 12:52:00,
2013-06-06 07:02:00,50.0,31.0,30.02,SSE,157,1.0,2.0,47,0.00,,,0.00,,2013-06-06 13:02:00,
2013-06-06 07:11:00,52.0,33.0,30.03,South,180,2.0,3.0,48,0.00,,,0.00,,2013-06-06 13:11:00,
2013-06-06 07:22:00,52.0,33.0,30.03,South,180,2.0,3.0,48,0.00,,,0.00,,2013-06-06 13:22:00,
2013-06-06 07:31:00,54.0,34.0,30.05,South,180,2.0,3.0,47,0.00,,,0.00,,2013-06-06 13:31:00,
2013-06-06 07:42:00,57.0,36.0,30.06,SE,135,2.0,2.0,46,0.00,,,0.00,,2013-06-06 13:42:00,
2013-06-06 07:52:00,57.0,36.0,30.06,SE,135,2.0,2.0,46,0.00,,,0.00,,2013-06-06 13:52:00,
2013-06-06 08:02:00,59.0,36.0,30.08,SE,135,0.0,1.0,42,0.00,,,0.00,,2013-06-06 14:02:00,
2013-06-06 08:11:00,61.0,37.0,30.09,East,90,1.0,2.0,41,0.00,,,0.00,,2013-06-06 14:11:00,
2013-06-06 08:21:00,61.0,37.0,30.09,East,90,1.0,2.0,41,0.00,,,0.00,,2013-06-06 14:21:00,
2013-06-06 08:32:00,62.0,33.0,30.11,NNE,22,2.0,4.0,33,0.00,,,0.00,,2013-06-06 14:32:00,
2013-06-06 08:42:00,62.0,33.0,30.11,NNE,22,2.0,4.0,33,0.00,,,0.00,,2013-06-06 14:42:00,
2013-06-06 08:52:00,63.0,34.0,30.12,North,360,2.0,4.0,34,0.00,,,0.00,,2013-06-06 14:52:00,
2013-06-06 09:02:00,64.0,34.0,30.13,NW,315,1.0,2.0,32,0.00,,,0.00,,2013-06-06 15:02:00,
2013-06-06 09:12:00,65.0,33.0,30.14,North,360,1.0,2.0,30,0.00,,,0.00,,2013-06-06 15:12:00,
2013-06-06 09:22:00,65.0,33.0,30.14,North,360,1.0,2.0,30,0.00,,,0.00,,2013-06-06 15:22:00,
2013-06-06 09:32:00,66.0,34.0,30.14,North,360,3.0,5.0,30,0.00,,,0.00,,2013-06-06 15:32:00,
2013-06-06 09:42:00,66.0,34.0,30.14,North,360,3.0,5.0,30,0.00,,,0.00,,2013-06-06 15:42:00,
2013-06-06 09:52:00,66.0,34.0,30.15,NW,315,3.0,5.0,30,0.00,,,0.00,,2013-06-06 15:52:00,
2013-06-06 10:02:00,68.0,34.0,30.15,NNW,337,2.0,4.0,28,0.00,,,0.00,,2013-06-06 16:02:00,
2013-06-06 10:12:00,68.0,34.0,30.15,NNW,337,2.0,4.0,28,0.00,,,0.00,,2013-06-06 16:12:00,
2013-06-06 10:22:00,69.0,32.0,30.16,NNW,337,2.0,3.0,25,0.00,,,0.00,,2013-06-06 16:22:00,
2013-06-06 10:33:00,70.0,34.0,30.16,North,360,1.0,1.0,26,0.00,,,0.00,,2013-06-06 16:33:00,
2013-06-06 10:42:00,70.0,34.0,30.16,North,360,1.0,1.0,26,0.00,,,0.00,,2013-06-06 16:42:00,
2013-06-06 10:52:00,71.0,33.0,30.16,West,270,2.0,4.0,25,0.00,,,0.00,,2013-06-06 16:52:00,
2013-06-06 11:02:00,72.0,34.0,30.16,NW,315,3.0,4.0,25,0.00,,,0.00,,2013-06-06 17:02:00,
2013-06-06 11:12:00,72.0,34.0,30.16,North,360,2.0,5.0,25,0.00,,,0.00,,2013-06-06 17:12:00,
2013-06-06 11:22:00,72.0,34.0,30.16,North,360,2.0,5.0,25,0.00,,,0.00,,2013-06-06 17:22:00,
2013-06-06 11:32:00,73.0,35.0,30.16,WNW,292,2.0,4.0,25,0.00,,,0.00,,2013-06-06 17:32:00,
2013-06-06 11:42:00,73.0,35.0,30.16,WNW,292,2.0,4.0,25,0.00,,,0.00,,2013-06-06 17:42:00,
2013-06-06 11:52:00,74.0,36.0,30.16,NNW,337,5.0,7.0,25,0.00,,,0.00,,2013-06-06 17:52:00,
2013-06-06 12:02:00,75.0,38.0,30.16,North,360,2.0,6.0,26,0.00,,,0.00,,2013-06-06 18:02:00,
2013-06-06 12:12:00,75.0,38.0,30.16,North,360,2.0,6.0,26,0.00,,,0.00,,2013-06-06 18:12:00,
2013-06-06 12:22:00,75.0,37.0,30.16,North,360,4.0,7.0,25,0.00,,,0.00,,2013-06-06 18:22:00,
2013-06-06 12:33:00,76.0,39.0,30.16,North,360,5.0,7.0,26,0.00,,,0.00,,2013-06-06 18:33:00,
2013-06-06 12:42:00,76.0,39.0,30.16,North,360,5.0,7.0,26,0.00,,,0.00,,2013-06-06 18:42:00,
2013-06-06 12:52:00,77.0,38.0,30.15,ENE,67,1.0,2.0,25,0.00,,,0.00,,2013-06-06 18:52:00,
2013-06-06 13:02:00,77.0,35.0,30.15,East,90,1.0,2.0,22,0.00,,,0.00,,2013-06-06 19:02:00,
2013-06-06 13:12:00,77.0,33.0,30.14,North,360,3.0,5.0,20,0.00,,,0.00,,2013-06-06 19:12:00,
2013-06-06 13:23:00,77.0,33.0,30.14,North,360,3.0,5.0,20,0.00,,,0.00,,2013-06-06 19:23:00,
2013-06-06 13:32:00,77.0,33.0,30.15,NE,45,3.0,5.0,20,0.00,,,0.00,,2013-06-06 19:32:00,
2013-06-06 13:42:00,77.0,33.0,30.15,NE,45,3.0,5.0,20,0.00,,,0.00,,2013-06-06 19:42:00,
2013-06-06 13:52:00,77.0,32.0,30.14,North,360,2.0,5.0,19,0.00,,,0.00,,2013-06-06 19:52:00,
2013-06-06 14:11:00,78.0,36.0,30.14,NNE,22,4.0,7.0,22,0.00,,,0.00,,2013-06-06 20:11:00,
2013-06-06 14:22:00,78.0,36.0,30.13,NE,45,8.0,12.0,22,0.00,,,0.00,,2013-06-06 20:22:00,
2013-06-06 14:32:00,78.0,35.0,30.13,North,360,7.0,10.0,21,0.00,,,0.00,,2013-06-06 20:32:00,
2013-06-06 14:42:00,78.0,35.0,30.13,North,360,7.0,10.0,21,0.00,,,0.00,,2013-06-06 20:42:00,
2013-06-06 14:52:00,79.0,34.0,30.13,NE,45,8.0,12.0,20,0.00,,,0.00,,2013-06-06 20:52:00,
2013-06-06 15:02:00,79.0,36.0,30.12,North,360,6.0,9.0,21,0.00,,,0.00,,2013-06-06 21:02:00,
2013-06-06 15:11:00,79.0,33.0,30.12,North,360,8.0,13.0,19,0.00,,,0.00,,2013-06-06 21:11:00,
2013-06-06 15:22:00,79.0,33.0,30.12,North,360,8.0,13.0,19,0.00,,,0.00,,2013-06-06 21:22:00,
2013-06-06 15:32:00,80.0,37.0,30.12,NE,45,7.0,9.0,21,0.00,,,0.00,,2013-06-06 21:32:00,
2013-06-06 15:43:00,80.0,37.0,30.12,NE,45,7.0,9.0,21,0.00,,,0.00,,2013-06-06 21:43:00,
2013-06-06 15:53:00,80.0,33.0,30.12,NNE,22,7.0,10.0,18,0.00,,,0.00,,2013-06-06 21:53:00,
2013-06-06 16:02:00,81.0,32.0,30.12,North,360,7.0,11.0,17,0.00,,,0.00,,2013-06-06 22:02:00,
2013-06-06 16:12:00,81.0,29.0,30.12,NNW,337,3.0,5.0,15,0.00,,,0.00,,2013-06-06 22:12:00,
2013-06-06 16:22:00,81.0,29.0,30.12,NNW,337,3.0,5.0,15,0.00,,,0.00,,2013-06-06 22:22:00,
2013-06-06 16:33:00,81.0,31.0,30.11,NW,315,2.0,4.0,16,0.00,,,0.00,,2013-06-06 22:33:00,
2013-06-06 16:43:00,81.0,31.0,30.11,NW,315,2.0,4.0,16,0.00,,,0.00,,2013-06-06 22:43:00,
2013-06-06 16:52:00,81.0,37.0,30.11,NE,45,3.0,7.0,21,0.00,,,0.00,,2013-06-06 22:52:00,
2013-06-06 17:02:00,81.0,33.0,30.11,NNE,22,1.0,2.0,18,0.00,,,0.00,,2013-06-06 23:02:00,
2013-06-06 17:11:00,81.0,33.0,30.11,North,360,2.0,2.0,18,0.00,,,0.00,,2013-06-06 23:11:00,
2013-06-06 17:22:00,81.0,33.0,30.11,North,360,2.0,2.0,18,0.00,,,0.00,,2013-06-06 23:22:00,
2013-06-06 17:33:00,82.0,36.0,30.10,North,360,5.0,10.0,19,0.00,,,0.00,,2013-06-06 23:33:00,
2013-06-06 17:42:00,82.0,36.0,30.10,North,360,5.0,10.0,19,0.00,,,0.00,,2013-06-06 23:42:00,
2013-06-06 17:52:00,82.0,34.0,30.10,NW,315,2.0,7.0,18,0.00,,,0.00,,2013-06-06 23:52:00,
2013-06-06 18:01:00,81.0,31.0,30.10,North,360,6.0,9.0,16,0.00,,,0.00,,2013-06-07 00:01:00,
2013-06-06 18:11:00,81.0,31.0,30.10,North,360,6.0,9.0,16,0.00,,,0.00,,2013-06-07 00:11:00,
2013-06-06 18:21:00,81.0,29.0,30.10,NW,315,5.0,8.0,15,0.00,,,0.00,,2013-06-07 00:21:00,
2013-06-06 18:32:00,81.0,31.0,30.09,NW,315,3.0,7.0,16,0.00,,,0.00,,2013-06-07 00:32:00,
2013-06-06 18:42:00,81.0,31.0,30.09,NW,315,3.0,7.0,16,0.00,,,0.00,,2013-06-07 00:42:00,
2013-06-06 18:52:00,80.0,30.0,30.09,NNW,337,3.0,5.0,16,0.00,,,0.00,,2013-06-07 00:52:00,
2013-06-06 19:02:00,80.0,30.0,30.08,NW,315,3.0,6.0,16,0.00,,,0.00,,2013-06-07 01:02:00,
2013-06-06 19:11:00,81.0,31.0,30.08,NW,315,4.0,9.0,16,0.00,,,0.00,,2013-06-07 01:11:00,
2013-06-06 19:22:00,81.0,31.0,30.08,NW,315,4.0,9.0,16,0.00,,,0.00,,2013-06-07 01:22:00,
2013-06-06 19:32:00,80.0,28.0,30.08,NW,315,5.0,9.0,15,0.00,,,0.00,,2013-06-07 01:32:00,
2013-06-06 19:42:00,80.0,28.0,30.08,NW,315,5.0,9.0,15,0.00,,,0.00,,2013-06-07 01:42:00,
2013-06-06 19:52:00,79.0,32.0,30.08,NNW,337,3.0,7.0,18,0.00,,,0.00,,2013-06-07 01:52:00,
2013-06-06 20:02:00,78.0,34.0,30.08,NNW,337,1.0,4.0,20,0.00,,,0.00,,2013-06-07 02:02:00,
2013-06-06 20:11:00,78.0,34.0,30.08,NNW,337,1.0,4.0,20,0.00,,,0.00,,2013-06-07 02:11:00,
2013-06-06 20:22:00,77.0,34.0,30.08,North,360,2.0,2.0,21,0.00,,,0.00,,2013-06-07 02:22:00,
2013-06-06 20:32:00,75.0,35.0,30.08,North,360,1.0,2.0,23,0.00,,,0.00,,2013-06-07 02:32:00,
2013-06-06 20:42:00,75.0,35.0,30.08,North,360,1.0,2.0,23,0.00,,,0.00,,2013-06-07 02:42:00,
2013-06-06 20:52:00,73.0,33.0,30.06,NNW,337,2.0,4.0,23,0.00,,,0.00,,2013-06-07 02:52:00,
2013-06-06 21:01:00,71.0,32.0,30.05,NW,315,2.0,2.0,24,0.00,,,0.00,,2013-06-07 03:01:00,
2013-06-06 21:11:00,70.0,33.0,30.05,NW,315,0.0,0.0,25,0.00,,,0.00,,2013-06-07 03:11:00,
2013-06-06 21:22:00,70.0,33.0,30.05,NW,315,0.0,0.0,25,0.00,,,0.00,,2013-06-07 03:22:00,
2013-06-06 21:32:00,69.0,33.0,30.03,NW,315,0.0,0.0,26,0.00,,,0.00,,2013-06-07 03:32:00,
2013-06-06 21:43:00,69.0,33.0,30.03,NW,315,0.0,0.0,26,0.00,,,0.00,,2013-06-07 03:43:00,
2013-06-06 21:52:00,68.0,32.0,30.03,NW,315,0.0,0.0,26,0.00,,,0.00,,2013-06-07 03:52:00,
2013-06-06 22:02:00,68.0,31.0,30.03,WNW,292,0.0,1.0,25,0.00,,,0.00,,2013-06-07 04:02:00,
2013-06-06 22:12:00,69.0,32.0,30.03,NW,315,0.0,0.0,25,0.00,,,0.00,,2013-06-07 04:12:00,
2013-06-06 22:22:00,69.0,32.0,30.03,NW,315,0.0,0.0,25,0.00,,,0.00,,2013-06-07 04:22:00,
2013-06-06 22:33:00,65.0,35.0,30.03,South,180,3.0,4.0,33,0.00,,,0.00,,2013-06-07 04:33:00,
2013-06-06 22:42:00,65.0,35.0,30.03,South,180,3.0,4.0,33,0.00,,,0.00,,2013-06-07 04:42:00,
2013-06-06 22:53:00,62.0,35.0,30.03,South,180,3.0,4.0,36,0.00,,,0.00,,2013-06-07 04:53:00,
2013-06-06 23:02:00,62.0,34.0,30.03,South,180,2.0,2.0,35,0.00,,,0.00,,2013-06-07 05:02:00,
2013-06-06 23:11:00,62.0,34.0,30.03,South,180,2.0,2.0,35,0.00,,,0.00,,2013-06-07 05:11:00,
2013-06-06 23:22:00,62.0,35.0,30.03,South,180,3.0,4.0,36,0.00,,,0.00,,2013-06-07 05:22:00,
2013-06-06 23:31:00,62.0,35.0,30.03,South,180,3.0,6.0,36,0.00,,,0.00,,2013-06-07 05:31:00,
2013-06-06 23:42:00,62.0,35.0,30.03,South,180,3.0,6.0,36,0.00,,,0.00,,2013-06-07 05:42:00,
2013-06-06 23:52:00,61.0,34.0,30.03,SSW,202,3.0,4.0,36,0.00,,,0.00,,2013-06-07 05:52:00,